sensor_id;sensor_type;location;lat;lon;timestamp;P1;durP1;ratioP1;P2;durP2;ratioP2
15402;SDS011;7799;53.478;10.170;2023-04-01T00:01:55;3.57;;;3.37;;
15402;SDS011;7799;53.478;10.170;2023-04-01T00:04:23;4.10;;;3.80;;
15402;SDS011;7799;53.478;10.170;2023-04-01T00:06:50;5.00;;;4.07;;
15402;SDS011;7799;53.478;10.170;2023-04-01T00:09:18;3.77;;;3.47;;
15402;SDS011;7799;53.478;10.170;2023-04-01T00:11:44;3.93;;;3.63;;
15402;SDS011;7799;53.478;10.170;2023-04-01T00:14:11;3.83;;;3.50;;
15402;SDS011;7799;53.478;10.170;2023-04-01T00:16:38;4.40;;;4.00;;
15402;SDS011;7799;53.478;10.170;2023-04-01T00:19:05;4.80;;;3.77;;
15402;SDS011;7799;53.478;10.170;2023-04-01T00:21:33;3.73;;;3.43;;
15402;SDS011;7799;53.478;10.170;2023-04-01T00:23:59;4.03;;;3.63;;
15402;SDS011;7799;53.478;10.170;2023-04-01T00:26:26;3.57;;;3.23;;
15402;SDS011;7799;53.478;10.170;2023-04-01T00:28:53;3.57;;;3.23;;
15402;SDS011;7799;53.478;10.170;2023-04-01T00:31:20;3.70;;;3.00;;
15402;SDS011;7799;53.478;10.170;2023-04-01T00:33:47;3.53;;;3.23;;
15402;SDS011;7799;53.478;10.170;2023-04-01T00:36:14;3.30;;;2.90;;
15402;SDS011;7799;53.478;10.170;2023-04-01T00:38:43;3.57;;;2.87;;
15402;SDS011;7799;53.478;10.170;2023-04-01T00:41:10;3.57;;;2.73;;
15402;SDS011;7799;53.478;10.170;2023-04-01T00:43:39;3.40;;;2.97;;
15402;SDS011;7799;53.478;10.170;2023-04-01T00:46:06;3.57;;;2.80;;
15402;SDS011;7799;53.478;10.170;2023-04-01T00:48:34;2.70;;;2.50;;
15402;SDS011;7799;53.478;10.170;2023-04-01T00:51:03;2.90;;;2.70;;
15402;SDS011;7799;53.478;10.170;2023-04-01T00:53:31;4.03;;;2.63;;
15402;SDS011;7799;53.478;10.170;2023-04-01T00:56:02;2.73;;;2.50;;
15402;SDS011;7799;53.478;10.170;2023-04-01T00:58:33;2.90;;;2.70;;
15402;SDS011;7799;53.478;10.170;2023-04-01T01:01:02;3.10;;;2.90;;
15402;SDS011;7799;53.478;10.170;2023-04-01T01:03:29;3.27;;;3.07;;
15402;SDS011;7799;53.478;10.170;2023-04-01T01:11:39;2.83;;;2.63;;
15402;SDS011;7799;53.478;10.170;2023-04-01T01:14:09;2.70;;;2.50;;
15402;SDS011;7799;53.478;10.170;2023-04-01T01:16:43;3.07;;;2.87;;
15402;SDS011;7799;53.478;10.170;2023-04-01T01:19:17;4.37;;;2.90;;
15402;SDS011;7799;53.478;10.170;2023-04-01T01:22:02;2.83;;;2.63;;
15402;SDS011;7799;53.478;10.170;2023-04-01T01:24:44;3.87;;;2.80;;
15402;SDS011;7799;53.478;10.170;2023-04-01T01:27:20;2.50;;;2.30;;
15402;SDS011;7799;53.478;10.170;2023-04-01T01:29:58;2.93;;;2.63;;
15402;SDS011;7799;53.478;10.170;2023-04-01T01:35:38;2.33;;;2.13;;
15402;SDS011;7799;53.478;10.170;2023-04-01T01:38:15;2.60;;;2.13;;
15402;SDS011;7799;53.478;10.170;2023-04-01T01:40:49;3.40;;;2.70;;
15402;SDS011;7799;53.478;10.170;2023-04-01T01:43:20;3.07;;;2.47;;
15402;SDS011;7799;53.478;10.170;2023-04-01T01:45:49;2.23;;;2.03;;
15402;SDS011;7799;53.478;10.170;2023-04-01T01:48:17;2.63;;;2.00;;
15402;SDS011;7799;53.478;10.170;2023-04-01T01:50:47;2.20;;;2.00;;
15402;SDS011;7799;53.478;10.170;2023-04-01T01:53:14;3.20;;;2.70;;
15402;SDS011;7799;53.478;10.170;2023-04-01T01:55:42;2.40;;;2.20;;
15402;SDS011;7799;53.478;10.170;2023-04-01T01:58:11;2.53;;;2.33;;
15402;SDS011;7799;53.478;10.170;2023-04-01T02:00:41;2.20;;;2.00;;
15402;SDS011;7799;53.478;10.170;2023-04-01T02:03:10;3.77;;;2.97;;
15402;SDS011;7799;53.478;10.170;2023-04-01T02:05:38;2.30;;;2.10;;
15402;SDS011;7799;53.478;10.170;2023-04-01T02:08:10;2.60;;;2.40;;
15402;SDS011;7799;53.478;10.170;2023-04-01T02:10:40;2.60;;;2.40;;
15402;SDS011;7799;53.478;10.170;2023-04-01T02:13:09;2.10;;;1.87;;
15402;SDS011;7799;53.478;10.170;2023-04-01T02:15:41;2.30;;;2.10;;
15402;SDS011;7799;53.478;10.170;2023-04-01T02:18:09;2.50;;;2.30;;
15402;SDS011;7799;53.478;10.170;2023-04-01T02:20:37;2.33;;;2.10;;
15402;SDS011;7799;53.478;10.170;2023-04-01T02:23:05;2.63;;;2.43;;
15402;SDS011;7799;53.478;10.170;2023-04-01T02:25:34;3.30;;;2.57;;
15402;SDS011;7799;53.478;10.170;2023-04-01T02:28:02;2.43;;;2.23;;
15402;SDS011;7799;53.478;10.170;2023-04-01T02:30:31;3.40;;;2.40;;
15402;SDS011;7799;53.478;10.170;2023-04-01T02:33:00;2.77;;;2.30;;
15402;SDS011;7799;53.478;10.170;2023-04-01T02:35:26;3.70;;;2.47;;
15402;SDS011;7799;53.478;10.170;2023-04-01T02:37:54;2.40;;;2.20;;
15402;SDS011;7799;53.478;10.170;2023-04-01T02:40:21;2.63;;;2.20;;
15402;SDS011;7799;53.478;10.170;2023-04-01T02:42:49;2.40;;;2.20;;
15402;SDS011;7799;53.478;10.170;2023-04-01T02:45:16;3.23;;;2.53;;
15402;SDS011;7799;53.478;10.170;2023-04-01T02:47:43;2.13;;;1.93;;
15402;SDS011;7799;53.478;10.170;2023-04-01T02:50:10;2.40;;;2.20;;
15402;SDS011;7799;53.478;10.170;2023-04-01T02:52:37;2.37;;;2.03;;
15402;SDS011;7799;53.478;10.170;2023-04-01T02:55:04;2.63;;;2.30;;
15402;SDS011;7799;53.478;10.170;2023-04-01T02:57:31;2.63;;;2.43;;
15402;SDS011;7799;53.478;10.170;2023-04-01T02:59:59;2.00;;;1.90;;
15402;SDS011;7799;53.478;10.170;2023-04-01T03:02:26;2.00;;;1.90;;
15402;SDS011;7799;53.478;10.170;2023-04-01T03:04:52;1.70;;;1.60;;
15402;SDS011;7799;53.478;10.170;2023-04-01T03:07:19;1.97;;;1.80;;
15402;SDS011;7799;53.478;10.170;2023-04-01T03:09:47;2.03;;;1.83;;
15402;SDS011;7799;53.478;10.170;2023-04-01T03:12:14;1.83;;;1.73;;
15402;SDS011;7799;53.478;10.170;2023-04-01T03:14:48;1.83;;;1.73;;
15402;SDS011;7799;53.478;10.170;2023-04-01T03:17:17;2.37;;;2.00;;
15402;SDS011;7799;53.478;10.170;2023-04-01T03:19:44;2.47;;;2.27;;
15402;SDS011;7799;53.478;10.170;2023-04-01T03:22:11;2.43;;;2.23;;
15402;SDS011;7799;53.478;10.170;2023-04-01T03:24:38;2.17;;;2.07;;
15402;SDS011;7799;53.478;10.170;2023-04-01T03:27:04;2.00;;;1.90;;
15402;SDS011;7799;53.478;10.170;2023-04-01T03:29:31;2.30;;;2.20;;
15402;SDS011;7799;53.478;10.170;2023-04-01T03:31:58;1.87;;;1.77;;
15402;SDS011;7799;53.478;10.170;2023-04-01T03:34:26;2.63;;;2.43;;
15402;SDS011;7799;53.478;10.170;2023-04-01T03:36:53;1.97;;;1.87;;
15402;SDS011;7799;53.478;10.170;2023-04-01T03:39:19;1.80;;;1.70;;
15402;SDS011;7799;53.478;10.170;2023-04-01T03:41:47;2.13;;;1.90;;
15402;SDS011;7799;53.478;10.170;2023-04-01T03:44:14;2.10;;;2.00;;
15402;SDS011;7799;53.478;10.170;2023-04-01T03:46:42;2.20;;;2.00;;
15402;SDS011;7799;53.478;10.170;2023-04-01T03:49:09;2.50;;;2.30;;
15402;SDS011;7799;53.478;10.170;2023-04-01T03:51:38;2.00;;;1.90;;
15402;SDS011;7799;53.478;10.170;2023-04-01T03:54:05;2.30;;;2.10;;
15402;SDS011;7799;53.478;10.170;2023-04-01T03:56:32;2.37;;;2.17;;
15402;SDS011;7799;53.478;10.170;2023-04-01T03:59:01;2.50;;;1.97;;
15402;SDS011;7799;53.478;10.170;2023-04-01T04:01:29;2.03;;;1.93;;
15402;SDS011;7799;53.478;10.170;2023-04-01T04:03:56;2.10;;;1.90;;
15402;SDS011;7799;53.478;10.170;2023-04-01T04:06:23;2.10;;;2.00;;
15402;SDS011;7799;53.478;10.170;2023-04-01T04:08:52;2.10;;;2.00;;
15402;SDS011;7799;53.478;10.170;2023-04-01T04:11:20;1.80;;;1.70;;
15402;SDS011;7799;53.478;10.170;2023-04-01T04:13:49;2.67;;;1.70;;
15402;SDS011;7799;53.478;10.170;2023-04-01T04:16:17;1.80;;;1.70;;
15402;SDS011;7799;53.478;10.170;2023-04-01T04:18:49;2.20;;;2.00;;
15402;SDS011;7799;53.478;10.170;2023-04-01T04:21:16;2.57;;;2.37;;
15402;SDS011;7799;53.478;10.170;2023-04-01T04:23:43;2.30;;;2.20;;
15402;SDS011;7799;53.478;10.170;2023-04-01T04:26:13;2.10;;;2.00;;
15402;SDS011;7799;53.478;10.170;2023-04-01T04:28:44;2.03;;;1.93;;
15402;SDS011;7799;53.478;10.170;2023-04-01T04:31:17;2.40;;;2.20;;
15402;SDS011;7799;53.478;10.170;2023-04-01T04:33:45;2.73;;;2.23;;
15402;SDS011;7799;53.478;10.170;2023-04-01T04:36:14;2.07;;;1.97;;
15402;SDS011;7799;53.478;10.170;2023-04-01T04:38:40;1.83;;;1.73;;
15402;SDS011;7799;53.478;10.170;2023-04-01T04:41:08;2.07;;;1.97;;
15402;SDS011;7799;53.478;10.170;2023-04-01T04:43:38;1.93;;;1.83;;
15402;SDS011;7799;53.478;10.170;2023-04-01T04:46:06;1.97;;;1.80;;
15402;SDS011;7799;53.478;10.170;2023-04-01T04:48:33;2.53;;;2.33;;
15402;SDS011;7799;53.478;10.170;2023-04-01T04:50:59;2.20;;;2.03;;
15402;SDS011;7799;53.478;10.170;2023-04-01T04:53:26;2.30;;;2.10;;
15402;SDS011;7799;53.478;10.170;2023-04-01T04:55:53;2.50;;;2.30;;
15402;SDS011;7799;53.478;10.170;2023-04-01T04:58:48;2.37;;;2.27;;
15402;SDS011;7799;53.478;10.170;2023-04-01T05:01:19;2.00;;;1.90;;
15402;SDS011;7799;53.478;10.170;2023-04-01T05:03:46;2.60;;;2.40;;
15402;SDS011;7799;53.478;10.170;2023-04-01T05:06:14;2.40;;;2.20;;
15402;SDS011;7799;53.478;10.170;2023-04-01T05:08:41;2.50;;;2.30;;
15402;SDS011;7799;53.478;10.170;2023-04-01T05:11:09;2.50;;;2.30;;
15402;SDS011;7799;53.478;10.170;2023-04-01T05:13:41;2.33;;;2.23;;
15402;SDS011;7799;53.478;10.170;2023-04-01T05:16:10;2.50;;;2.30;;
15402;SDS011;7799;53.478;10.170;2023-04-01T05:18:37;2.57;;;2.33;;
15402;SDS011;7799;53.478;10.170;2023-04-01T05:21:06;2.40;;;2.30;;
15402;SDS011;7799;53.478;10.170;2023-04-01T05:23:33;2.10;;;2.00;;
15402;SDS011;7799;53.478;10.170;2023-04-01T05:26:02;2.23;;;2.07;;
15402;SDS011;7799;53.478;10.170;2023-04-01T05:28:31;2.50;;;2.30;;
15402;SDS011;7799;53.478;10.170;2023-04-01T05:30:58;2.17;;;2.07;;
15402;SDS011;7799;53.478;10.170;2023-04-01T05:33:31;2.13;;;1.97;;
15402;SDS011;7799;53.478;10.170;2023-04-01T05:36:04;2.23;;;2.13;;
15402;SDS011;7799;53.478;10.170;2023-04-01T05:38:32;2.50;;;2.30;;
15402;SDS011;7799;53.478;10.170;2023-04-01T05:40:59;2.97;;;2.67;;
15402;SDS011;7799;53.478;10.170;2023-04-01T05:43:26;2.30;;;2.20;;
15402;SDS011;7799;53.478;10.170;2023-04-01T05:45:54;2.23;;;2.03;;
15402;SDS011;7799;53.478;10.170;2023-04-01T05:48:36;2.07;;;1.97;;
15402;SDS011;7799;53.478;10.170;2023-04-01T05:51:03;2.10;;;2.00;;
15402;SDS011;7799;53.478;10.170;2023-04-01T05:53:30;2.10;;;2.00;;
15402;SDS011;7799;53.478;10.170;2023-04-01T05:56:01;2.60;;;2.40;;
15402;SDS011;7799;53.478;10.170;2023-04-01T05:58:30;2.63;;;2.40;;
15402;SDS011;7799;53.478;10.170;2023-04-01T06:01:01;2.30;;;2.20;;
15402;SDS011;7799;53.478;10.170;2023-04-01T06:03:28;1.80;;;1.70;;
15402;SDS011;7799;53.478;10.170;2023-04-01T06:05:56;1.20;;;1.10;;
15402;SDS011;7799;53.478;10.170;2023-04-01T06:08:23;0.90;;;0.90;;
15402;SDS011;7799;53.478;10.170;2023-04-01T06:10:53;1.27;;;1.17;;
15402;SDS011;7799;53.478;10.170;2023-04-01T06:13:29;0.90;;;0.90;;
15402;SDS011;7799;53.478;10.170;2023-04-01T06:16:10;0.77;;;0.77;;
15402;SDS011;7799;53.478;10.170;2023-04-01T06:18:50;0.87;;;0.87;;
15402;SDS011;7799;53.478;10.170;2023-04-01T06:21:29;0.90;;;0.90;;
15402;SDS011;7799;53.478;10.170;2023-04-01T06:24:08;0.90;;;0.90;;
15402;SDS011;7799;53.478;10.170;2023-04-01T06:26:46;0.80;;;0.80;;
15402;SDS011;7799;53.478;10.170;2023-04-01T06:32:15;0.73;;;0.73;;
15402;SDS011;7799;53.478;10.170;2023-04-01T06:34:52;0.93;;;0.93;;
15402;SDS011;7799;53.478;10.170;2023-04-01T06:43:48;1.23;;;1.20;;
15402;SDS011;7799;53.478;10.170;2023-04-01T06:46:40;1.20;;;1.17;;
15402;SDS011;7799;53.478;10.170;2023-04-01T06:49:39;0.80;;;0.80;;
15402;SDS011;7799;53.478;10.170;2023-04-01T06:52:31;1.07;;;1.07;;
15402;SDS011;7799;53.478;10.170;2023-04-01T06:55:24;1.33;;;1.23;;
15402;SDS011;7799;53.478;10.170;2023-04-01T06:58:18;1.00;;;1.00;;
15402;SDS011;7799;53.478;10.170;2023-04-01T07:00:48;1.10;;;1.10;;
15402;SDS011;7799;53.478;10.170;2023-04-01T07:03:17;1.30;;;1.20;;
15402;SDS011;7799;53.478;10.170;2023-04-01T07:05:47;1.23;;;1.20;;
15402;SDS011;7799;53.478;10.170;2023-04-01T07:08:15;1.10;;;1.10;;
15402;SDS011;7799;53.478;10.170;2023-04-01T07:10:46;1.33;;;1.30;;
15402;SDS011;7799;53.478;10.170;2023-04-01T07:13:34;1.13;;;1.13;;
15402;SDS011;7799;53.478;10.170;2023-04-01T07:16:12;1.07;;;1.07;;
15402;SDS011;7799;53.478;10.170;2023-04-01T07:18:43;1.10;;;1.10;;
15402;SDS011;7799;53.478;10.170;2023-04-01T07:21:16;1.30;;;0.93;;
15402;SDS011;7799;53.478;10.170;2023-04-01T07:23:48;1.43;;;1.33;;
15402;SDS011;7799;53.478;10.170;2023-04-01T07:26:37;0.80;;;0.80;;
15402;SDS011;7799;53.478;10.170;2023-04-01T07:29:14;1.00;;;1.00;;
15402;SDS011;7799;53.478;10.170;2023-04-01T07:34:44;1.00;;;0.90;;
15402;SDS011;7799;53.478;10.170;2023-04-01T07:37:18;1.00;;;1.00;;
15402;SDS011;7799;53.478;10.170;2023-04-01T07:39:51;0.90;;;0.90;;
15402;SDS011;7799;53.478;10.170;2023-04-01T07:42:30;0.80;;;0.80;;
15402;SDS011;7799;53.478;10.170;2023-04-01T07:45:07;1.37;;;0.80;;
15402;SDS011;7799;53.478;10.170;2023-04-01T07:47:41;0.87;;;0.87;;
15402;SDS011;7799;53.478;10.170;2023-04-01T07:50:17;0.70;;;0.70;;
15402;SDS011;7799;53.478;10.170;2023-04-01T07:52:48;1.00;;;1.00;;
15402;SDS011;7799;53.478;10.170;2023-04-01T07:55:23;0.80;;;0.80;;
15402;SDS011;7799;53.478;10.170;2023-04-01T07:57:52;1.00;;;0.87;;
15402;SDS011;7799;53.478;10.170;2023-04-01T08:00:27;0.80;;;0.80;;
15402;SDS011;7799;53.478;10.170;2023-04-01T08:03:17;1.10;;;1.10;;
15402;SDS011;7799;53.478;10.170;2023-04-01T08:05:53;0.97;;;0.90;;
15402;SDS011;7799;53.478;10.170;2023-04-01T08:08:26;0.70;;;0.70;;
15402;SDS011;7799;53.478;10.170;2023-04-01T08:11:09;0.90;;;0.90;;
15402;SDS011;7799;53.478;10.170;2023-04-01T08:14:00;0.87;;;0.87;;
15402;SDS011;7799;53.478;10.170;2023-04-01T08:16:53;0.80;;;0.80;;
15402;SDS011;7799;53.478;10.170;2023-04-01T08:19:31;0.80;;;0.80;;
15402;SDS011;7799;53.478;10.170;2023-04-01T08:22:09;0.70;;;0.70;;
15402;SDS011;7799;53.478;10.170;2023-04-01T08:24:39;0.80;;;0.80;;
15402;SDS011;7799;53.478;10.170;2023-04-01T08:27:09;0.80;;;0.80;;
15402;SDS011;7799;53.478;10.170;2023-04-01T08:29:39;0.73;;;0.73;;
15402;SDS011;7799;53.478;10.170;2023-04-01T08:32:10;1.00;;;1.00;;
15402;SDS011;7799;53.478;10.170;2023-04-01T08:34:40;0.90;;;0.90;;
15402;SDS011;7799;53.478;10.170;2023-04-01T08:37:17;0.90;;;0.90;;
15402;SDS011;7799;53.478;10.170;2023-04-01T08:39:52;0.90;;;0.90;;
15402;SDS011;7799;53.478;10.170;2023-04-01T08:42:26;1.17;;;1.07;;
15402;SDS011;7799;53.478;10.170;2023-04-01T08:45:11;1.00;;;1.00;;
15402;SDS011;7799;53.478;10.170;2023-04-01T08:47:56;1.03;;;1.03;;
15402;SDS011;7799;53.478;10.170;2023-04-01T08:50:39;1.00;;;1.00;;
15402;SDS011;7799;53.478;10.170;2023-04-01T08:53:33;0.80;;;0.80;;
15402;SDS011;7799;53.478;10.170;2023-04-01T08:56:11;0.80;;;0.80;;
15402;SDS011;7799;53.478;10.170;2023-04-01T09:01:46;1.07;;;0.97;;
15402;SDS011;7799;53.478;10.170;2023-04-01T09:05:05;1.00;;;1.00;;
15402;SDS011;7799;53.478;10.170;2023-04-01T09:07:46;1.00;;;1.00;;
15402;SDS011;7799;53.478;10.170;2023-04-01T09:10:25;1.00;;;1.00;;
15402;SDS011;7799;53.478;10.170;2023-04-01T09:13:20;1.00;;;1.00;;
15402;SDS011;7799;53.478;10.170;2023-04-01T09:16:01;0.90;;;0.90;;
15402;SDS011;7799;53.478;10.170;2023-04-01T09:18:43;0.97;;;0.97;;
15402;SDS011;7799;53.478;10.170;2023-04-01T09:21:28;0.97;;;0.97;;
15402;SDS011;7799;53.478;10.170;2023-04-01T09:24:17;0.90;;;0.90;;
15402;SDS011;7799;53.478;10.170;2023-04-01T09:27:02;0.90;;;0.90;;
15402;SDS011;7799;53.478;10.170;2023-04-01T09:29:37;1.20;;;1.10;;
15402;SDS011;7799;53.478;10.170;2023-04-01T09:32:18;0.80;;;0.80;;
15402;SDS011;7799;53.478;10.170;2023-04-01T09:35:14;0.90;;;0.90;;
15402;SDS011;7799;53.478;10.170;2023-04-01T09:37:53;0.90;;;0.90;;
15402;SDS011;7799;53.478;10.170;2023-04-01T09:40:25;1.00;;;1.00;;
15402;SDS011;7799;53.478;10.170;2023-04-01T09:43:06;1.10;;;1.10;;
15402;SDS011;7799;53.478;10.170;2023-04-01T09:45:48;1.40;;;1.00;;
15402;SDS011;7799;53.478;10.170;2023-04-01T09:48:28;1.27;;;1.17;;
15402;SDS011;7799;53.478;10.170;2023-04-01T09:51:05;1.00;;;1.00;;
15402;SDS011;7799;53.478;10.170;2023-04-01T09:53:48;0.90;;;0.90;;
15402;SDS011;7799;53.478;10.170;2023-04-01T09:56:27;1.00;;;1.00;;
15402;SDS011;7799;53.478;10.170;2023-04-01T10:06:06;0.90;;;0.90;;
15402;SDS011;7799;53.478;10.170;2023-04-01T10:08:51;1.10;;;1.10;;
15402;SDS011;7799;53.478;10.170;2023-04-01T10:11:40;0.90;;;0.90;;
15402;SDS011;7799;53.478;10.170;2023-04-01T10:14:29;0.90;;;0.90;;
15402;SDS011;7799;53.478;10.170;2023-04-01T10:17:12;0.87;;;0.87;;
15402;SDS011;7799;53.478;10.170;2023-04-01T10:23:16;1.00;;;1.00;;
15402;SDS011;7799;53.478;10.170;2023-04-01T10:38:12;0.97;;;0.90;;
15402;SDS011;7799;53.478;10.170;2023-04-01T10:40:53;1.07;;;1.00;;
15402;SDS011;7799;53.478;10.170;2023-04-01T10:44:01;1.00;;;1.00;;
15402;SDS011;7799;53.478;10.170;2023-04-01T10:47:07;1.33;;;1.00;;
15402;SDS011;7799;53.478;10.170;2023-04-01T10:50:13;1.03;;;1.03;;
15402;SDS011;7799;53.478;10.170;2023-04-01T11:11:47;1.00;;;0.90;;
15402;SDS011;7799;53.478;10.170;2023-04-01T11:20:36;1.27;;;1.10;;
15402;SDS011;7799;53.478;10.170;2023-04-01T11:23:12;0.87;;;0.87;;
15402;SDS011;7799;53.478;10.170;2023-04-01T11:25:54;1.10;;;1.10;;
15402;SDS011;7799;53.478;10.170;2023-04-01T11:28:48;0.80;;;0.80;;
15402;SDS011;7799;53.478;10.170;2023-04-01T11:31:29;1.07;;;1.07;;
15402;SDS011;7799;53.478;10.170;2023-04-01T11:34:04;1.33;;;1.17;;
15402;SDS011;7799;53.478;10.170;2023-04-01T11:36:39;1.03;;;1.00;;
15402;SDS011;7799;53.478;10.170;2023-04-01T11:39:17;1.00;;;1.00;;
15402;SDS011;7799;53.478;10.170;2023-04-01T11:42:11;1.20;;;1.20;;
15402;SDS011;7799;53.478;10.170;2023-04-01T11:45:08;1.30;;;1.30;;
15402;SDS011;7799;53.478;10.170;2023-04-01T11:50:41;1.30;;;1.30;;
15402;SDS011;7799;53.478;10.170;2023-04-01T11:53:20;1.57;;;1.47;;
15402;SDS011;7799;53.478;10.170;2023-04-01T11:55:53;1.37;;;1.27;;
15402;SDS011;7799;53.478;10.170;2023-04-01T11:58:42;2.20;;;1.73;;
15402;SDS011;7799;53.478;10.170;2023-04-01T12:01:25;1.90;;;1.80;;
15402;SDS011;7799;53.478;10.170;2023-04-01T12:04:12;2.00;;;1.90;;
15402;SDS011;7799;53.478;10.170;2023-04-01T12:07:03;2.07;;;1.97;;
15402;SDS011;7799;53.478;10.170;2023-04-01T12:09:37;2.57;;;2.37;;
15402;SDS011;7799;53.478;10.170;2023-04-01T12:12:16;2.67;;;2.47;;
15402;SDS011;7799;53.478;10.170;2023-04-01T12:14:48;4.80;;;3.23;;
15402;SDS011;7799;53.478;10.170;2023-04-01T12:17:27;3.00;;;2.70;;
15402;SDS011;7799;53.478;10.170;2023-04-01T12:19:58;2.57;;;2.37;;
15402;SDS011;7799;53.478;10.170;2023-04-01T12:22:34;2.60;;;2.40;;
15402;SDS011;7799;53.478;10.170;2023-04-01T12:25:16;2.47;;;2.27;;
15402;SDS011;7799;53.478;10.170;2023-04-01T12:27:52;2.60;;;2.40;;
15402;SDS011;7799;53.478;10.170;2023-04-01T12:36:19;2.27;;;2.10;;
15402;SDS011;7799;53.478;10.170;2023-04-01T12:39:00;2.10;;;2.00;;
15402;SDS011;7799;53.478;10.170;2023-04-01T12:41:40;2.60;;;2.40;;
15402;SDS011;7799;53.478;10.170;2023-04-01T12:44:17;2.70;;;2.47;;
15402;SDS011;7799;53.478;10.170;2023-04-01T12:46:54;2.63;;;2.40;;
15402;SDS011;7799;53.478;10.170;2023-04-01T12:49:36;2.60;;;2.40;;
15402;SDS011;7799;53.478;10.170;2023-04-01T12:52:09;3.03;;;2.47;;
15402;SDS011;7799;53.478;10.170;2023-04-01T12:54:48;2.50;;;2.30;;
15402;SDS011;7799;53.478;10.170;2023-04-01T12:57:30;3.67;;;2.60;;
15402;SDS011;7799;53.478;10.170;2023-04-01T13:00:11;2.97;;;2.37;;
15402;SDS011;7799;53.478;10.170;2023-04-01T13:02:47;3.07;;;2.13;;
15402;SDS011;7799;53.478;10.170;2023-04-01T13:05:24;3.43;;;2.27;;
15402;SDS011;7799;53.478;10.170;2023-04-01T13:08:05;3.03;;;2.60;;
15402;SDS011;7799;53.478;10.170;2023-04-01T13:10:39;2.90;;;2.43;;
15402;SDS011;7799;53.478;10.170;2023-04-01T13:13:21;2.90;;;2.63;;
15402;SDS011;7799;53.478;10.170;2023-04-01T13:15:55;2.30;;;2.10;;
15402;SDS011;7799;53.478;10.170;2023-04-01T13:18:28;2.40;;;2.20;;
15402;SDS011;7799;53.478;10.170;2023-04-01T13:21:00;2.40;;;2.20;;
15402;SDS011;7799;53.478;10.170;2023-04-01T13:23:38;2.83;;;2.63;;
15402;SDS011;7799;53.478;10.170;2023-04-01T13:26:13;2.70;;;2.50;;
15402;SDS011;7799;53.478;10.170;2023-04-01T13:28:49;3.87;;;2.37;;
15402;SDS011;7799;53.478;10.170;2023-04-01T13:31:25;3.70;;;2.60;;
15402;SDS011;7799;53.478;10.170;2023-04-01T13:34:05;2.40;;;2.20;;
15402;SDS011;7799;53.478;10.170;2023-04-01T13:36:41;2.40;;;2.20;;
15402;SDS011;7799;53.478;10.170;2023-04-01T13:39:22;3.00;;;2.47;;
15402;SDS011;7799;53.478;10.170;2023-04-01T13:42:03;3.23;;;2.93;;
15402;SDS011;7799;53.478;10.170;2023-04-01T13:44:38;3.27;;;2.77;;
15402;SDS011;7799;53.478;10.170;2023-04-01T13:47:11;2.60;;;2.40;;
15402;SDS011;7799;53.478;10.170;2023-04-01T13:49:58;4.60;;;3.17;;
15402;SDS011;7799;53.478;10.170;2023-04-01T13:55:39;2.40;;;2.20;;
15402;SDS011;7799;53.478;10.170;2023-04-01T13:58:20;2.37;;;2.20;;
15402;SDS011;7799;53.478;10.170;2023-04-01T14:01:10;2.00;;;1.90;;
15402;SDS011;7799;53.478;10.170;2023-04-01T14:03:43;2.27;;;2.03;;
15402;SDS011;7799;53.478;10.170;2023-04-01T14:06:19;2.47;;;2.27;;
15402;SDS011;7799;53.478;10.170;2023-04-01T14:09:06;2.27;;;2.07;;
15402;SDS011;7799;53.478;10.170;2023-04-01T14:12:01;2.67;;;2.40;;
15402;SDS011;7799;53.478;10.170;2023-04-01T14:14:34;3.00;;;2.13;;
15402;SDS011;7799;53.478;10.170;2023-04-01T14:17:23;2.83;;;2.23;;
15402;SDS011;7799;53.478;10.170;2023-04-01T14:20:08;3.47;;;2.57;;
15402;SDS011;7799;53.478;10.170;2023-04-01T14:22:59;2.80;;;2.60;;
15402;SDS011;7799;53.478;10.170;2023-04-01T14:28:28;2.20;;;2.10;;
15402;SDS011;7799;53.478;10.170;2023-04-01T14:31:00;2.33;;;2.13;;
15402;SDS011;7799;53.478;10.170;2023-04-01T14:33:41;3.17;;;2.80;;
15402;SDS011;7799;53.478;10.170;2023-04-01T14:42:11;3.27;;;2.50;;
15402;SDS011;7799;53.478;10.170;2023-04-01T14:44:50;3.63;;;3.00;;
15402;SDS011;7799;53.478;10.170;2023-04-01T14:47:28;2.83;;;2.50;;
15402;SDS011;7799;53.478;10.170;2023-04-01T14:50:05;3.97;;;2.60;;
15402;SDS011;7799;53.478;10.170;2023-04-01T14:52:35;2.70;;;2.50;;
15402;SDS011;7799;53.478;10.170;2023-04-01T14:55:15;2.97;;;2.70;;
15402;SDS011;7799;53.478;10.170;2023-04-01T14:57:57;3.23;;;2.70;;
15402;SDS011;7799;53.478;10.170;2023-04-01T15:00:25;3.17;;;2.73;;
15402;SDS011;7799;53.478;10.170;2023-04-01T15:02:54;3.70;;;2.90;;
15402;SDS011;7799;53.478;10.170;2023-04-01T15:05:30;3.27;;;2.97;;
15402;SDS011;7799;53.478;10.170;2023-04-01T15:08:05;3.53;;;3.20;;
15402;SDS011;7799;53.478;10.170;2023-04-01T15:13:48;4.63;;;3.50;;
15402;SDS011;7799;53.478;10.170;2023-04-01T15:16:32;4.37;;;3.30;;
15402;SDS011;7799;53.478;10.170;2023-04-01T15:19:05;3.57;;;2.90;;
15402;SDS011;7799;53.478;10.170;2023-04-01T15:21:50;3.43;;;3.10;;
15402;SDS011;7799;53.478;10.170;2023-04-01T15:24:24;2.90;;;2.70;;
15402;SDS011;7799;53.478;10.170;2023-04-01T15:27:09;3.87;;;3.10;;
15402;SDS011;7799;53.478;10.170;2023-04-01T15:29:56;4.60;;;3.17;;
15402;SDS011;7799;53.478;10.170;2023-04-01T15:32:41;3.77;;;3.30;;
15402;SDS011;7799;53.478;10.170;2023-04-01T15:35:18;3.50;;;3.20;;
15402;SDS011;7799;53.478;10.170;2023-04-01T15:37:53;3.33;;;3.03;;
15402;SDS011;7799;53.478;10.170;2023-04-01T15:40:22;6.20;;;3.87;;
15402;SDS011;7799;53.478;10.170;2023-04-01T15:42:55;3.93;;;3.07;;
15402;SDS011;7799;53.478;10.170;2023-04-01T15:45:31;6.67;;;4.73;;
15402;SDS011;7799;53.478;10.170;2023-04-01T15:48:06;7.07;;;4.27;;
15402;SDS011;7799;53.478;10.170;2023-04-01T15:50:58;4.10;;;3.60;;
15402;SDS011;7799;53.478;10.170;2023-04-01T15:53:37;3.87;;;3.47;;
15402;SDS011;7799;53.478;10.170;2023-04-01T15:56:21;4.77;;;3.80;;
15402;SDS011;7799;53.478;10.170;2023-04-01T15:58:55;4.77;;;3.73;;
15402;SDS011;7799;53.478;10.170;2023-04-01T16:01:32;5.17;;;3.57;;
15402;SDS011;7799;53.478;10.170;2023-04-01T16:04:07;3.90;;;3.27;;
15402;SDS011;7799;53.478;10.170;2023-04-01T16:06:47;4.03;;;3.43;;
15402;SDS011;7799;53.478;10.170;2023-04-01T16:09:37;4.27;;;3.40;;
15402;SDS011;7799;53.478;10.170;2023-04-01T16:12:12;3.93;;;3.63;;
15402;SDS011;7799;53.478;10.170;2023-04-01T16:14:44;5.43;;;4.00;;
15402;SDS011;7799;53.478;10.170;2023-04-01T16:17:31;3.87;;;3.50;;
15402;SDS011;7799;53.478;10.170;2023-04-01T16:20:12;4.40;;;3.83;;
15402;SDS011;7799;53.478;10.170;2023-04-01T16:22:45;5.27;;;3.73;;
15402;SDS011;7799;53.478;10.170;2023-04-01T16:25:24;3.87;;;3.50;;
15402;SDS011;7799;53.478;10.170;2023-04-01T16:27:58;5.63;;;3.90;;
15402;SDS011;7799;53.478;10.170;2023-04-01T16:30:42;6.33;;;4.30;;
15402;SDS011;7799;53.478;10.170;2023-04-01T16:33:12;4.60;;;3.83;;
15402;SDS011;7799;53.478;10.170;2023-04-01T16:35:42;3.40;;;3.10;;
15402;SDS011;7799;53.478;10.170;2023-04-01T16:38:15;4.83;;;3.77;;
15402;SDS011;7799;53.478;10.170;2023-04-01T16:40:50;3.50;;;3.20;;
15402;SDS011;7799;53.478;10.170;2023-04-01T16:43:26;5.83;;;4.10;;
15402;SDS011;7799;53.478;10.170;2023-04-01T16:46:07;5.27;;;3.93;;
15402;SDS011;7799;53.478;10.170;2023-04-01T16:48:49;4.27;;;3.60;;
15402;SDS011;7799;53.478;10.170;2023-04-01T16:51:24;4.90;;;3.50;;
15402;SDS011;7799;53.478;10.170;2023-04-01T16:54:00;3.93;;;3.53;;
15402;SDS011;7799;53.478;10.170;2023-04-01T16:56:38;3.97;;;3.40;;
15402;SDS011;7799;53.478;10.170;2023-04-01T16:59:07;4.27;;;3.87;;
15402;SDS011;7799;53.478;10.170;2023-04-01T17:01:40;4.20;;;3.80;;
15402;SDS011;7799;53.478;10.170;2023-04-01T17:04:13;3.67;;;3.20;;
15402;SDS011;7799;53.478;10.170;2023-04-01T17:06:44;3.67;;;3.37;;
15402;SDS011;7799;53.478;10.170;2023-04-01T17:09:19;3.77;;;3.47;;
15402;SDS011;7799;53.478;10.170;2023-04-01T17:11:54;4.73;;;3.90;;